createdAt,value
2018-05-12T00:01:14.980Z,10.13
2018-05-12T00:03:42.487Z,10.68
2018-05-12T00:06:10.098Z,10.60
2018-05-12T00:08:37.531Z,10.10
2018-05-12T00:11:05.043Z,10.80
2018-05-12T00:13:32.556Z,10.60
2018-05-12T00:16:00.065Z,10.90
2018-05-12T00:18:27.577Z,10.63
2018-05-12T00:20:55.096Z,10.80
2018-05-12T00:23:22.603Z,11.15
2018-05-12T00:25:50.098Z,10.80
2018-05-12T00:28:17.616Z,10.90
2018-05-12T00:30:45.130Z,10.30
2018-05-12T00:33:12.624Z,10.77
2018-05-12T00:35:40.127Z,10.73
2018-05-12T00:38:07.649Z,10.43
2018-05-12T00:40:35.175Z,10.60
2018-05-12T00:43:02.796Z,10.10
2018-05-12T00:45:30.250Z,10.70
2018-05-12T00:47:58.526Z,10.57
2018-05-12T00:50:26.804Z,10.40
2018-05-12T00:52:55.095Z,10.27
2018-05-12T00:55:22.612Z,10.18
2018-05-12T00:57:50.115Z,9.80
2018-05-12T01:00:17.667Z,9.77
2018-05-12T01:02:45.172Z,10.15
2018-05-12T01:05:12.683Z,9.52
2018-05-12T01:07:40.189Z,11.00
2018-05-12T01:10:07.726Z,10.50
2018-05-12T01:12:35.233Z,10.43
2018-05-12T01:15:03.512Z,9.95
2018-05-12T01:17:31.795Z,10.10
2018-05-12T01:20:00.096Z,9.48
2018-05-12T01:22:27.595Z,9.48
2018-05-12T01:24:55.911Z,9.60
2018-05-12T01:27:24.182Z,8.90
2018-05-12T01:29:52.461Z,9.60
2018-05-12T01:32:20.726Z,9.80
2018-05-12T01:34:48.999Z,9.97
2018-05-12T01:37:17.263Z,9.35
2018-05-12T01:39:44.767Z,9.73
2018-05-12T01:42:12.281Z,10.13
2018-05-12T01:44:39.783Z,9.07
2018-05-12T01:47:07.303Z,9.60
2018-05-12T01:49:35.569Z,10.00
2018-05-12T01:52:03.095Z,9.30
2018-05-12T01:54:30.624Z,9.40
2018-05-12T01:56:58.126Z,9.40
2018-05-12T01:59:25.644Z,9.50
2018-05-12T02:01:53.174Z,9.75
2018-05-12T02:04:20.695Z,9.65
2018-05-12T02:06:48.202Z,10.60
2018-05-12T02:09:16.470Z,9.63
2018-05-12T02:11:44.751Z,9.60
2018-05-12T02:14:13.035Z,9.95
2018-05-12T02:16:41.303Z,9.85
2018-05-12T02:19:09.577Z,9.90
2018-05-12T02:21:37.867Z,9.30
2018-05-12T02:24:05.385Z,9.77
2018-05-12T02:26:32.890Z,10.32
2018-05-12T02:29:00.455Z,9.45
2018-05-12T02:31:27.958Z,10.10
2018-05-12T02:33:55.483Z,9.50
2018-05-12T02:36:22.998Z,10.45
2018-05-12T02:38:51.271Z,10.33
2018-05-12T02:41:19.539Z,10.00
2018-05-12T02:43:47.128Z,10.10
2018-05-12T02:46:14.663Z,9.95
2018-05-12T02:48:42.161Z,10.63
2018-05-12T02:51:09.671Z,11.10
2018-05-12T02:53:37.188Z,10.65
2018-05-12T02:56:04.704Z,10.48
2018-05-12T02:58:33.000Z,10.60
2018-05-12T03:01:00.504Z,11.30
2018-05-12T03:03:28.028Z,11.10
2018-05-12T03:05:55.539Z,11.35
2018-05-12T03:08:23.043Z,11.20
2018-05-12T03:10:50.554Z,10.85
2018-05-12T03:13:18.152Z,11.82
2018-05-12T03:15:45.667Z,11.53
2018-05-12T03:18:13.163Z,11.10
2018-05-12T03:20:40.818Z,11.38
2018-05-12T03:23:09.107Z,12.43
2018-05-12T03:25:36.626Z,11.50
2018-05-12T03:28:04.135Z,11.57
2018-05-12T03:30:31.655Z,12.00
2018-05-12T03:33:00.055Z,12.30
2018-05-12T03:35:27.561Z,11.35
2018-05-12T03:37:55.069Z,12.10
2018-05-12T03:40:22.632Z,11.88
2018-05-12T03:42:50.134Z,11.40
2018-05-12T03:45:17.639Z,11.80
2018-05-12T03:47:45.898Z,11.57
2018-05-12T03:50:14.204Z,11.40
2018-05-12T03:52:41.703Z,11.50
2018-05-12T03:55:09.221Z,12.30
2018-05-12T03:57:36.724Z,12.50
2018-05-12T04:00:04.290Z,12.37
2018-05-12T04:02:31.760Z,11.70
2018-05-12T04:05:11.255Z,11.82
2018-05-12T04:07:50.547Z,12.00
2018-05-12T04:13:14.222Z,12.13
2018-05-12T04:15:41.719Z,12.00
2018-05-12T04:18:09.258Z,12.25
2018-05-12T04:20:37.527Z,11.90
2018-05-12T04:23:05.787Z,12.20
2018-05-12T04:25:33.299Z,12.10
2018-05-12T04:28:00.802Z,11.10
2018-05-12T04:30:28.329Z,10.88
2018-05-12T04:32:55.831Z,10.10
2018-05-12T04:35:24.107Z,10.77
2018-05-12T04:37:52.380Z,10.20
2018-05-12T04:40:20.667Z,10.68
2018-05-12T04:42:48.929Z,10.13
2018-05-12T04:45:16.442Z,9.30
2018-05-12T04:47:43.971Z,10.30
2018-05-12T04:50:12.235Z,10.10
2018-05-12T04:52:40.508Z,10.20
2018-05-12T04:55:08.762Z,9.80
2018-05-12T04:57:36.289Z,9.50
2018-05-12T05:00:03.794Z,10.00
2018-05-12T05:02:32.057Z,11.23
2018-05-12T05:04:59.654Z,12.87
2018-05-12T05:07:27.177Z,10.38
2018-05-12T05:09:54.690Z,8.93
2018-05-12T05:12:22.189Z,9.32
2018-05-12T05:14:49.699Z,8.90
2018-05-12T05:17:17.202Z,8.90
2018-05-12T05:19:44.699Z,9.00
2018-05-12T05:22:12.191Z,9.57
2018-05-12T05:24:39.751Z,8.70
2018-05-12T05:27:07.263Z,8.40
2018-05-12T05:29:35.527Z,8.38
2018-05-12T05:32:03.830Z,8.60
2018-05-12T05:34:31.324Z,8.30
2018-05-12T05:36:58.835Z,7.93
2018-05-12T05:39:27.116Z,8.23
2018-05-12T05:41:55.444Z,8.15
2018-05-12T05:44:22.975Z,8.35
2018-05-12T05:46:50.490Z,8.00
2018-05-12T05:49:18.755Z,8.10
2018-05-12T05:51:46.327Z,8.50
2018-05-12T05:54:13.791Z,8.00
2018-05-12T05:56:42.088Z,8.50
2018-05-12T05:59:09.601Z,7.90
2018-05-12T06:01:37.135Z,8.20
2018-05-12T06:04:04.651Z,8.18
2018-05-12T06:06:32.944Z,8.23
2018-05-12T06:09:00.438Z,8.50
2018-05-12T06:11:27.938Z,8.98
2018-05-12T06:13:56.353Z,7.93
2018-05-12T06:16:23.873Z,8.40
2018-05-12T06:18:52.136Z,8.52
2018-05-12T06:21:20.434Z,8.75
2018-05-12T06:23:48.717Z,8.90
2018-05-12T06:26:16.215Z,8.60
2018-05-12T06:28:43.719Z,8.00
2018-05-12T06:31:12.011Z,7.80
2018-05-12T06:33:39.557Z,8.50
2018-05-12T06:36:07.819Z,8.40
2018-05-12T06:38:36.104Z,8.30
2018-05-12T06:41:04.383Z,8.90
2018-05-12T06:43:31.960Z,8.52
2018-05-12T06:45:59.456Z,8.10
2018-05-12T06:48:26.975Z,6.67
2018-05-12T06:50:54.479Z,7.50
2018-05-12T06:53:22.011Z,8.55
2018-05-12T06:55:49.506Z,7.60
2018-05-12T06:58:18.528Z,8.10
2018-05-12T07:00:46.835Z,7.65
2018-05-12T07:03:14.354Z,7.75
2018-05-12T07:05:42.648Z,7.10
2018-05-12T07:08:10.162Z,7.80
2018-05-12T07:10:37.678Z,7.70
2018-05-12T07:13:05.180Z,7.57
2018-05-12T07:15:34.224Z,7.67
2018-05-12T07:18:01.732Z,8.05
2018-05-12T07:20:29.239Z,7.50
2018-05-12T07:22:56.743Z,8.30
2018-05-12T07:25:24.243Z,8.43
2018-05-12T07:27:51.758Z,7.80
2018-05-12T07:30:19.291Z,7.93
2018-05-12T07:32:46.795Z,8.38
2018-05-12T07:35:14.295Z,8.43
2018-05-12T07:37:41.800Z,8.30
2018-05-12T07:40:09.406Z,7.23
2018-05-12T07:42:36.916Z,7.68
2018-05-12T07:45:04.510Z,8.20
2018-05-12T07:47:31.971Z,7.75
2018-05-12T07:50:00.241Z,7.63
2018-05-12T07:52:27.768Z,7.82
2018-05-12T07:54:55.308Z,8.97
2018-05-12T07:57:22.812Z,7.68
2018-05-12T07:59:51.079Z,7.93
2018-05-12T08:02:18.606Z,7.60
2018-05-12T08:04:46.106Z,6.82
2018-05-12T08:07:14.374Z,6.90
2018-05-12T08:09:42.661Z,6.62
2018-05-12T08:12:10.950Z,8.15
2018-05-12T08:14:38.495Z,7.70
2018-05-12T08:17:06.767Z,8.27
2018-05-12T08:19:35.040Z,7.05
2018-05-12T08:22:03.306Z,7.35
2018-05-12T08:24:30.809Z,7.40
2018-05-12T08:26:58.337Z,6.90
2018-05-12T08:29:25.848Z,6.70
2018-05-12T08:31:53.434Z,6.93
2018-05-12T08:34:20.938Z,8.30
2018-05-12T08:36:48.427Z,5.13
2018-05-12T08:39:15.949Z,5.30
2018-05-12T08:41:43.459Z,5.00
2018-05-12T08:44:10.975Z,4.30
2018-05-12T08:46:38.482Z,4.60
2018-05-12T08:49:05.987Z,4.57
2018-05-12T08:51:33.496Z,4.20
2018-05-12T08:54:01.000Z,2.95
2018-05-12T08:56:28.550Z,2.80
2018-05-12T08:58:56.059Z,3.40
2018-05-12T09:01:23.564Z,3.50
2018-05-12T09:03:51.076Z,4.60
2018-05-12T09:06:18.582Z,4.28
2018-05-12T09:08:46.071Z,4.45
2018-05-12T09:11:13.579Z,3.90
2018-05-12T09:13:41.864Z,3.80
2018-05-12T09:16:10.130Z,6.40
2018-05-12T09:18:38.402Z,5.75
2018-05-12T09:21:06.690Z,3.83
2018-05-12T09:23:34.963Z,3.83
2018-05-12T09:26:03.237Z,3.70
2018-05-12T09:28:31.503Z,3.62
2018-05-12T09:30:59.782Z,3.67
2018-05-12T09:33:28.044Z,3.10
2018-05-12T09:35:55.555Z,2.33
2018-05-12T09:38:23.048Z,2.97
2018-05-12T09:40:50.575Z,3.00
2018-05-12T09:43:18.082Z,2.60
2018-05-12T09:45:45.590Z,2.97
2018-05-12T09:48:13.120Z,2.70
2018-05-12T09:50:42.148Z,2.60
2018-05-12T09:53:09.686Z,2.25
2018-05-12T09:55:37.186Z,2.80
2018-05-12T09:58:04.695Z,4.05
2018-05-12T10:00:32.199Z,3.55
2018-05-12T10:02:59.722Z,3.60
2018-05-12T10:05:27.225Z,3.25
2018-05-12T10:07:54.717Z,2.80
2018-05-12T10:10:22.982Z,3.80
2018-05-12T10:12:51.343Z,4.20
2018-05-12T10:15:19.571Z,3.75
2018-05-12T10:17:47.128Z,3.83
2018-05-12T10:20:14.624Z,3.50
2018-05-12T10:22:43.657Z,3.70
2018-05-12T10:25:11.982Z,3.30
2018-05-12T10:27:39.488Z,3.45
2018-05-12T10:30:07.757Z,3.20
2018-05-12T10:32:35.283Z,3.33
2018-05-12T10:35:02.798Z,3.37
2018-05-12T10:37:30.300Z,3.97
2018-05-12T10:39:57.825Z,3.72
2018-05-12T10:42:25.325Z,3.62
2018-05-12T10:44:52.924Z,3.97
2018-05-12T10:47:20.366Z,4.18
2018-05-12T10:49:48.628Z,4.90
2018-05-12T10:52:16.135Z,3.53
2018-05-12T10:54:43.623Z,4.18
2018-05-12T10:57:11.127Z,4.35
2018-05-12T10:59:39.391Z,3.90
2018-05-12T11:02:07.703Z,5.05
2018-05-12T11:04:35.224Z,3.90
2018-05-12T11:07:03.535Z,5.30
2018-05-12T11:09:31.040Z,4.80
2018-05-12T11:11:58.557Z,4.32
2018-05-12T11:14:26.070Z,4.55
2018-05-12T11:16:54.353Z,5.22
2018-05-12T11:19:21.954Z,4.15
2018-05-12T11:21:49.516Z,3.80
2018-05-12T11:24:17.059Z,4.40
2018-05-12T11:26:44.692Z,4.20
2018-05-12T11:29:12.149Z,5.40
2018-05-12T11:31:39.652Z,4.85
2018-05-12T11:34:07.151Z,6.43
2018-05-12T11:36:34.656Z,4.72
2018-05-12T11:39:02.199Z,4.45
2018-05-12T11:41:30.466Z,4.60
2018-05-12T11:43:58.738Z,4.22
2018-05-12T11:46:27.013Z,4.50
2018-05-12T11:48:55.306Z,4.57
2018-05-12T11:51:23.582Z,3.90
2018-05-12T11:53:51.078Z,4.03
2018-05-12T11:56:18.596Z,3.80
2018-05-12T11:58:46.859Z,4.20
2018-05-12T12:01:15.146Z,3.87
2018-05-12T12:03:43.563Z,5.57
2018-05-12T12:06:11.091Z,5.93
2018-05-12T12:08:38.648Z,7.87
2018-05-12T12:11:06.178Z,6.75
2018-05-12T12:13:34.477Z,11.00
2018-05-12T12:16:02.748Z,5.30
2018-05-12T12:18:31.019Z,4.90
2018-05-12T12:20:59.299Z,4.20
2018-05-12T12:23:27.572Z,4.00
2018-05-12T12:25:55.871Z,4.20
2018-05-12T12:28:23.396Z,4.00
2018-05-12T12:30:50.886Z,4.30
2018-05-12T12:33:18.809Z,4.40
2018-05-12T12:35:46.322Z,4.33
2018-05-12T12:38:13.851Z,4.00
2018-05-12T12:40:42.118Z,4.50
2018-05-12T12:43:09.616Z,4.30
2018-05-12T12:45:37.127Z,6.43
2018-05-12T12:48:05.391Z,4.53
2018-05-12T12:50:32.886Z,5.30
2018-05-12T12:53:01.181Z,4.43
2018-05-12T12:55:29.445Z,4.00
2018-05-12T12:57:56.934Z,4.60
2018-05-12T13:00:24.464Z,5.00
2018-05-12T13:02:52.720Z,5.03
2018-05-12T13:05:20.991Z,5.87
2018-05-12T13:07:49.280Z,6.12
2018-05-12T13:10:17.551Z,5.00
2018-05-12T13:12:45.824Z,4.20
2018-05-12T13:15:14.096Z,3.90
2018-05-12T13:17:42.363Z,6.00
2018-05-12T13:20:09.864Z,5.40
2018-05-12T13:22:37.370Z,3.87
2018-05-12T13:25:04.875Z,4.00
2018-05-12T13:27:32.378Z,4.10
2018-05-12T13:29:59.890Z,4.60
2018-05-12T13:32:27.454Z,4.57
2018-05-12T13:34:54.915Z,6.10
2018-05-12T13:37:22.424Z,4.50
2018-05-12T13:39:50.033Z,9.60
2018-05-12T13:42:17.535Z,5.32
2018-05-12T13:44:45.046Z,6.07
2018-05-12T13:47:12.564Z,4.60
2018-05-12T13:49:40.067Z,4.60
2018-05-12T13:52:07.557Z,4.18
2018-05-12T13:54:35.095Z,4.82
2018-05-12T13:57:02.588Z,4.50
2018-05-12T13:59:30.190Z,4.65
2018-05-12T14:01:57.733Z,5.90
2018-05-12T14:04:25.366Z,3.83
2018-05-12T14:06:52.964Z,4.93
2018-05-12T14:09:20.476Z,4.40
2018-05-12T14:11:47.968Z,4.53
2018-05-12T14:14:16.302Z,5.07
2018-05-12T14:16:43.805Z,4.60
2018-05-12T14:19:12.083Z,4.45
2018-05-12T14:21:40.365Z,4.35
2018-05-12T14:24:08.639Z,4.37
2018-05-12T14:26:36.937Z,4.10
2018-05-12T14:29:04.444Z,4.43
2018-05-12T14:31:32.755Z,4.70
2018-05-12T14:34:00.515Z,4.55
2018-05-12T14:36:28.902Z,4.20
2018-05-12T14:38:56.400Z,4.90
2018-05-12T14:41:23.960Z,4.70
2018-05-12T14:43:51.466Z,4.80
2018-05-12T14:46:19.726Z,4.90
2018-05-12T14:48:48.015Z,4.70
2018-05-12T14:51:16.275Z,5.10
2018-05-12T14:53:43.851Z,4.55
2018-05-12T14:56:11.362Z,5.00
2018-05-12T14:58:38.888Z,4.80
2018-05-12T15:01:06.398Z,5.10
2018-05-12T15:03:33.910Z,4.97
2018-05-12T15:06:01.417Z,4.78
2018-05-12T15:08:29.010Z,4.70
2018-05-12T15:10:56.484Z,4.50
2018-05-12T15:13:23.981Z,4.97
2018-05-12T15:15:51.500Z,5.00
2018-05-12T15:18:19.004Z,4.80
2018-05-12T15:20:46.523Z,4.70
2018-05-12T15:23:14.056Z,4.10
2018-05-12T15:25:42.334Z,3.80
2018-05-12T15:28:09.846Z,4.30
2018-05-12T15:30:37.463Z,4.40
2018-05-12T15:33:05.039Z,4.45
2018-05-12T15:35:32.538Z,4.32
2018-05-12T15:38:00.064Z,4.40
2018-05-12T15:40:27.596Z,4.10
2018-05-12T15:42:55.879Z,4.30
2018-05-12T15:45:23.378Z,4.25
2018-05-12T15:47:50.896Z,4.60
2018-05-12T15:50:18.398Z,4.35
2018-05-12T15:52:45.896Z,4.50
2018-05-12T15:55:14.174Z,4.43
2018-05-12T15:57:42.433Z,4.70
2018-05-12T16:00:10.732Z,4.93
2018-05-12T16:02:38.233Z,4.18
2018-05-12T16:05:05.722Z,4.47
2018-05-12T16:07:33.263Z,4.03
2018-05-12T16:10:00.771Z,4.10
2018-05-12T16:12:28.327Z,4.10
2018-05-12T16:14:55.894Z,4.20
2018-05-12T16:17:23.427Z,4.03
2018-05-12T16:19:51.710Z,4.20
2018-05-12T16:22:20.006Z,4.15
2018-05-12T16:24:47.526Z,4.18
2018-05-12T16:27:15.033Z,4.12
2018-05-12T16:29:42.542Z,4.07
2018-05-12T16:32:10.039Z,4.57
2018-05-12T16:34:37.552Z,4.45
2018-05-12T16:37:05.812Z,3.90
2018-05-12T16:39:33.331Z,4.50
2018-05-12T16:42:00.839Z,4.00
2018-05-12T16:44:29.893Z,4.85
2018-05-12T16:46:57.394Z,5.55
2018-05-12T16:49:24.885Z,4.30
2018-05-12T16:51:52.399Z,4.60
2018-05-12T16:54:19.903Z,4.00
2018-05-12T16:56:48.215Z,4.60
2018-05-12T16:59:15.727Z,4.90
2018-05-12T17:01:44.004Z,4.00
2018-05-12T17:04:12.283Z,4.20
2018-05-12T17:06:40.667Z,4.20
2018-05-12T17:09:08.941Z,4.10
2018-05-12T17:11:37.206Z,3.85
2018-05-12T17:14:05.485Z,3.62
2018-05-12T17:16:33.750Z,4.05
2018-05-12T17:19:01.277Z,4.03
2018-05-12T17:21:28.846Z,4.28
2018-05-12T17:23:56.455Z,4.30
2018-05-12T17:26:23.943Z,4.78
2018-05-12T17:28:51.571Z,6.57
2018-05-12T17:31:19.830Z,4.60
2018-05-12T17:33:48.122Z,5.55
2018-05-12T17:36:15.615Z,6.22
2018-05-12T17:38:43.171Z,5.22
2018-05-12T17:41:10.679Z,4.43
2018-05-12T17:43:38.952Z,4.50
2018-05-12T17:46:06.467Z,4.90
2018-05-12T17:48:33.981Z,4.18
2018-05-12T17:51:02.273Z,5.95
2018-05-12T17:53:29.838Z,4.60
2018-05-12T17:55:57.388Z,4.80
2018-05-12T17:58:24.874Z,4.30
2018-05-12T18:00:52.369Z,4.30
2018-05-12T18:03:19.875Z,5.00
2018-05-12T18:05:47.418Z,4.30
2018-05-12T18:08:14.931Z,4.60
2018-05-12T18:10:42.443Z,4.37
2018-05-12T18:13:09.968Z,5.35
2018-05-12T18:15:37.598Z,5.05
2018-05-12T18:18:05.916Z,4.85
2018-05-12T18:20:34.180Z,4.40
2018-05-12T18:23:02.481Z,4.82
2018-05-12T18:25:29.995Z,5.43
2018-05-12T18:27:57.506Z,5.00
2018-05-12T18:30:29.675Z,4.90
2018-05-12T18:32:57.222Z,4.90
2018-05-12T18:35:24.732Z,5.10
2018-05-12T18:37:52.223Z,5.60
2018-05-12T18:40:20.512Z,5.62
2018-05-12T18:42:48.042Z,4.70
2018-05-12T18:45:15.536Z,5.33
2018-05-12T18:47:43.040Z,5.00
2018-05-12T18:50:10.561Z,5.20
2018-05-12T18:52:38.056Z,5.10
2018-05-12T18:55:05.577Z,4.80
2018-05-12T18:57:33.832Z,5.57
2018-05-12T19:00:02.109Z,5.80
2018-05-12T19:02:30.363Z,5.12
2018-05-12T19:04:57.894Z,7.25
2018-05-12T19:07:25.390Z,4.90
2018-05-12T19:09:53.689Z,5.10
2018-05-12T19:12:21.205Z,5.60
2018-05-12T19:14:48.725Z,4.70
2018-05-12T19:17:16.979Z,5.10
2018-05-12T19:19:44.488Z,5.70
2018-05-12T19:22:12.091Z,6.00
2018-05-12T19:24:40.376Z,5.55
2018-05-12T19:27:07.969Z,5.90
2018-05-12T19:29:35.488Z,6.32
2018-05-12T19:32:03.004Z,6.43
2018-05-12T19:34:30.510Z,7.00
2018-05-12T19:36:58.036Z,7.40
2018-05-12T19:39:25.531Z,7.28
2018-05-12T19:41:53.018Z,7.60
2018-05-12T19:44:20.535Z,6.80
2018-05-12T19:46:48.805Z,8.55
2018-05-12T19:49:17.195Z,8.60
2018-05-12T19:51:44.772Z,8.65
2018-05-12T19:54:12.290Z,9.38
2018-05-12T19:56:39.862Z,9.10
2018-05-12T19:59:08.145Z,8.17
2018-05-12T20:01:35.662Z,8.70
2018-05-12T20:04:04.681Z,9.02
2018-05-12T20:06:32.990Z,9.60
2018-05-12T20:09:00.489Z,9.13
2018-05-12T20:11:28.028Z,9.73
2018-05-12T20:13:56.296Z,9.32
2018-05-12T20:16:23.803Z,10.13
2018-05-12T20:18:51.332Z,9.50
2018-05-12T20:21:18.836Z,9.50
2018-05-12T20:23:46.373Z,10.40
2018-05-12T20:26:13.882Z,10.98
2018-05-12T20:28:41.427Z,10.63
2018-05-12T20:31:09.014Z,12.02
2018-05-12T20:33:36.466Z,11.50
2018-05-12T20:36:03.980Z,12.48
2018-05-12T20:38:32.272Z,12.48
2018-05-12T20:40:59.783Z,12.20
2018-05-12T20:43:27.303Z,12.05
2018-05-12T20:45:54.838Z,11.43
2018-05-12T20:48:23.118Z,12.10
2018-05-12T20:50:51.387Z,12.10
2018-05-12T20:53:19.689Z,12.70
2018-05-12T20:55:47.188Z,12.55
2018-05-12T20:58:14.718Z,13.02
2018-05-12T21:00:42.240Z,13.60
2018-05-12T21:03:10.599Z,13.25
2018-05-12T21:05:38.058Z,13.50
2018-05-12T21:08:06.347Z,14.00
2018-05-12T21:10:34.630Z,14.10
2018-05-12T21:13:02.913Z,14.50
2018-05-12T21:15:30.416Z,14.40
2018-05-12T21:17:57.951Z,14.40
2018-05-12T21:20:25.465Z,14.85
2018-05-12T21:22:53.762Z,14.60
2018-05-12T21:25:21.266Z,14.30
2018-05-12T21:27:48.767Z,15.50
2018-05-12T21:30:17.053Z,14.80
2018-05-12T21:32:45.318Z,15.57
2018-05-12T21:35:13.594Z,15.00
2018-05-12T21:37:41.868Z,14.75
2018-05-12T21:40:10.162Z,15.80
2018-05-12T21:42:37.670Z,15.65
2018-05-12T21:45:05.176Z,16.55
2018-05-12T21:47:32.694Z,16.55
2018-05-12T21:50:00.184Z,15.70
2018-05-12T21:52:28.474Z,16.20
2018-05-12T21:54:55.974Z,16.37
2018-05-12T21:57:23.504Z,16.95
2018-05-12T21:59:51.016Z,17.15
2018-05-12T22:02:18.547Z,17.90
2018-05-12T22:04:46.168Z,17.13
2018-05-12T22:07:13.707Z,17.12
2018-05-12T22:09:42.003Z,16.80
2018-05-12T22:12:09.504Z,17.73
2018-05-12T22:14:37.026Z,18.50
2018-05-12T22:17:04.556Z,16.83
2018-05-12T22:19:32.817Z,17.70
2018-05-12T22:22:00.340Z,18.10
2018-05-12T22:24:27.867Z,19.08
2018-05-12T22:26:55.388Z,20.10
2018-05-12T22:29:22.920Z,19.80
2018-05-12T22:31:50.427Z,19.73
2018-05-12T22:34:18.718Z,19.58
2018-05-12T22:36:46.219Z,18.17
2018-05-12T22:39:13.828Z,20.00
2018-05-12T22:41:42.092Z,20.90
2018-05-12T22:44:10.383Z,20.10
2018-05-12T22:46:38.647Z,19.50
2018-05-12T22:49:06.926Z,19.73
2018-05-12T22:51:35.195Z,19.33
2018-05-12T22:54:03.487Z,20.48
2018-05-12T22:56:31.016Z,19.30
2018-05-12T22:58:58.518Z,19.62
2018-05-12T23:01:26.063Z,18.73
2018-05-12T23:03:53.643Z,19.63
2018-05-12T23:06:21.875Z,18.90
2018-05-12T23:08:49.375Z,19.20
2018-05-12T23:11:16.894Z,19.00
2018-05-12T23:13:45.161Z,19.53
2018-05-12T23:16:12.695Z,18.90
2018-05-12T23:18:40.194Z,19.62
2018-05-12T23:21:08.489Z,19.60
2018-05-12T23:23:35.999Z,19.08
2018-05-12T23:26:03.519Z,20.73
2018-05-12T23:28:31.048Z,20.27
2018-05-12T23:30:59.308Z,19.95
2018-05-12T23:33:26.851Z,20.88
2018-05-12T23:35:54.339Z,20.67
2018-05-12T23:38:22.602Z,20.77
2018-05-12T23:40:50.115Z,21.20
2018-05-12T23:43:17.606Z,20.98
2018-05-12T23:45:45.302Z,22.05
2018-05-12T23:48:13.567Z,21.77
2018-05-12T23:50:41.859Z,22.00
2018-05-12T23:53:09.388Z,22.60
2018-05-12T23:55:36.894Z,22.20
2018-05-12T23:58:04.418Z,22.37
